メインページ
METAR-TAF:

METAR-TAF

空港 :

マスコーカ, オンタリオ州, カナダ

緯度: 44-58N, 経度: 079-18W, 海抜: 280m

現時点の気象観測

当レポートは26分前の20:00(UTC)に作成
変向風 2kt
気温 -4°C
湿度 58%
気圧 1028 hPa
視程: 14.5km
高度3300ftの曇り

METAR: CYQA 072000Z AUTO VRB02KT 9SM OVC033 M04/M11 A3035 RMK SLP298

時間: 15:26 (20:26 UTC)

予報

当レポートは47分前の19:39(UTC)に作成
予報は07日の 20時(UTC)から 08日の 03時(UTC)まで有効
南/南西の風 5kt
視程: 10km
高度2500ftの千切れ雲あり
07日の 20時(UTC)から 08日の 01時(UTC)まで一時的に
視程: 8.0km
高度2000ftの千切れ雲あり
小雪
07日の 20時(UTC)から 07日の 22時(UTC)まで徐々に
南/南東の風 5kt
08日の 0200時(UTC)から
の風 5kt
視程: 10km
高度3000ftの雲はほとんどない

TAF: CYQA 071939Z 0720/0803 20005KT P6SM BKN025 TEMPO 0720/0801 5SM -SN BKN020 BECMG 0720/0722 16005KT FM080200 18005KT P6SM FEW030 RMK FCST BASED ON AUTO OBS. NXT FCST WILL BE ISSUED AT 081245Z

4,000以上の空港の気象観測と天気予報(METAR報とTAF報)

利用可能な観測所は地図上に黄色い丸と赤い丸で示す。

丸の上にカーソルを重ねると観測所名を参照できる。

次にクリックすると気象観測と天気予報を参照できる。

マップの切り替え:黒色「×」印の緑ボタンをクリックして拡大、「-」印の緑ボタンをクリックして縮小、緑色の三角印をクリックして隣りの地図に切り替え


METAR-TAF: